Sopchoppy, Florida
Current Conditions -  °F | °C
As of 4:53 PM on Thursday 18 Dec 2014 (Local Time) from KTLH Reporting Station
Scattered Clouds Scattered Clouds  
Wind Chill: 61°   Ceiling: Unl
Heat Index: 61°   Visibility: 10mi
Dew Point: 42°   Wind: 3mph
Humidity: 50%   Direction: 260°W
Pressure: 30.11"   Gusts: NA
Location:  30.06°N, 84.49°W
Report Text: KTLH 182153Z 26003KT 10SM SCT250 16/06 A3011 RMK AO2 SLP196 T01610056 $
Loading
Personal Weather Stations






























Interactive Weather Map New forecast layout! Learn more

10-Day Weather Forecast

Advertisements
Track Severe Weather on mobile